Time;durP1;ratioP1;P1;durP2;ratioP2;P2;SDS_P1;SDS_P2;PMS_P1;PMS_P2;Temp;Humidity;BMP_temperature;BMP_pressure;BME280_temperature;BME280_humidity;BME280_pressure;Samples;Min_cycle;Max_cycle;Signal;HPM_P1;HPM_P2
2022/06/15 00:01:25;;;;;;;16.58;10.27;;;;;;;-145.76;100.00;65039.31;4918221;28;20054;-72
2022/06/15 00:03:52;;;;;;;16.65;10.20;;;;;;;-145.76;100.00;65039.31;4919281;28;20038;-71
2022/06/15 00:06:21;;;;;;;15.23;10.57;;;;;;;-145.76;100.00;65039.31;4887652;28;20046;-72
2022/06/15 00:08:48;;;;;;;19.80;11.57;;;;;;;-145.76;100.00;65039.31;4922298;28;20057;-72
2022/06/15 00:11:17;;;;;;;16.60;10.70;;;;;;;-145.76;100.00;65039.31;4886726;28;20081;-72
2022/06/15 00:13:44;;;;;;;24.77;12.60;;;;;;;-145.76;100.00;65039.31;4921112;28;20963;-72
2022/06/15 00:16:10;;;;;;;15.48;10.48;;;;;;;-145.76;100.00;65039.31;4905043;28;20726;-72
2022/06/15 00:18:36;;;;;;;19.50;11.05;;;;;;;-145.76;100.00;65039.31;4918449;28;20206;-72
2022/06/15 00:21:02;;;;;;;16.42;9.93;;;;;;;-145.76;100.00;65039.31;4906613;28;20493;-72
2022/06/15 00:23:29;;;;;;;19.48;10.02;;;;;;;-145.76;100.00;65039.31;4919003;28;20046;-72
2022/06/15 00:25:55;;;;;;;17.98;10.82;;;;;;;-145.76;100.00;65039.31;4922414;28;20061;-72
2022/06/15 00:28:21;;;;;;;15.73;9.75;;;;;;;-145.76;100.00;65039.31;4902385;28;20059;-72
2022/06/15 00:30:49;;;;;;;23.75;10.50;;;;;;;-145.76;100.00;65039.31;4918986;28;20045;-70
2022/06/15 00:33:15;;;;;;;18.23;9.70;;;;;;;-145.76;100.00;65039.31;4905029;28;22632;-70
2022/06/15 00:35:40;;;;;;;17.42;9.30;;;;;;;-145.76;100.00;65039.31;4916290;28;20030;-71
2022/06/15 00:38:07;;;;;;;16.55;9.43;;;;;;;-145.76;100.00;65039.31;4903318;28;20050;-71
2022/06/15 00:40:34;;;;;;;15.27;9.93;;;;;;;-145.76;100.00;65039.31;4920578;28;20046;-71
2022/06/15 00:43:00;;;;;;;19.33;9.88;;;;;;;-145.76;100.00;65039.31;4932470;28;20078;-71
2022/06/15 00:45:25;;;;;;;18.25;11.10;;;;;;;-145.76;100.00;65039.31;4924334;28;20049;-71
2022/06/15 00:47:51;;;;;;;17.42;9.35;;;;;;;-145.76;100.00;65039.31;4919988;28;20149;-70
2022/06/15 00:50:20;;;;;;;21.67;10.95;;;;;;;-145.76;100.00;65039.31;4919805;28;20148;-70
2022/06/15 00:52:52;;;;;;;17.48;10.25;;;;;;;-145.76;100.00;65039.31;4922358;28;20057;-70
2022/06/15 00:55:27;;;;;;;15.93;9.18;;;;;;;-145.76;100.00;65039.31;4903853;28;23913;-70
2022/06/15 00:57:52;;;;;;;16.02;10.13;;;;;;;-145.76;100.00;65039.31;4915998;28;20045;-70
2022/06/15 01:00:19;;;;;;;16.98;10.98;;;;;;;-145.76;100.00;65039.31;4900316;28;20172;-71
2022/06/15 01:02:45;;;;;;;19.83;10.82;;;;;;;-145.76;100.00;65039.31;4920326;28;20041;-71
2022/06/15 01:05:17;;;;;;;13.63;10.00;;;;;;;-145.76;100.00;65039.31;4916897;28;20107;-71
2022/06/15 01:08:18;;;;;;;14.07;9.82;;;;;;;-145.76;100.00;65039.31;4906382;28;20149;-71
2022/06/15 01:10:58;;;;;;;17.88;11.25;;;;;;;-145.76;100.00;65039.31;4871829;28;20042;-71
2022/06/15 01:13:30;;;;;;;19.25;10.02;;;;;;;-145.76;100.00;65039.31;4918016;28;20042;-71
2022/06/15 01:16:03;;;;;;;19.70;9.90;;;;;;;-145.76;100.00;65039.31;4918448;28;20046;-71
2022/06/15 01:18:44;;;;;;;20.05;9.38;;;;;;;-145.76;100.00;65039.31;4900175;28;20165;-71
2022/06/15 01:21:10;;;;;;;13.80;9.18;;;;;;;-145.76;100.00;65039.31;4916236;28;20096;-72
2022/06/15 01:23:54;;;;;;;16.10;10.10;;;;;;;-145.76;100.00;65039.31;4906296;28;20054;-72
2022/06/15 01:26:54;;;;;;;13.32;8.63;;;;;;;-145.76;100.00;65039.31;4916571;28;20956;-72
2022/06/15 01:29:37;;;;;;;16.10;9.57;;;;;;;-145.76;100.00;65039.31;4900609;28;20054;-71
2022/06/15 01:32:03;;;;;;;14.45;9.90;;;;;;;-145.76;100.00;65039.31;4918883;28;20572;-72
2022/06/15 01:34:42;;;;;;;16.85;9.88;;;;;;;-145.76;100.00;65039.31;4901284;28;20044;-72
2022/06/15 01:37:19;;;;;;;16.15;10.40;;;;;;;-145.76;100.00;65039.31;4933513;28;20061;-72
2022/06/15 01:39:50;;;;;;;19.20;10.05;;;;;;;-145.76;100.00;65039.31;4905358;28;20050;-72
2022/06/15 01:42:41;;;;;;;13.48;9.63;;;;;;;-145.76;100.00;65039.31;4930601;28;20038;-72
2022/06/15 01:45:10;;;;;;;22.48;10.52;;;;;;;-145.76;100.00;65039.31;4899217;28;20156;-70
2022/06/15 01:47:36;;;;;;;20.77;11.13;;;;;;;-145.76;100.00;65039.31;4933873;28;20042;-71
2022/06/15 01:50:22;;;;;;;17.23;11.93;;;;;;;-145.76;100.00;65039.31;4901528;28;20026;-71
2022/06/15 01:52:53;;;;;;;16.80;11.52;;;;;;;-145.76;100.00;65039.31;4916493;28;20042;-71
2022/06/15 01:55:24;;;;;;;15.95;10.50;;;;;;;-145.76;100.00;65039.31;4913602;28;20044;-72
2022/06/15 01:57:53;;;;;;;16.33;11.20;;;;;;;-145.76;100.00;65039.31;4915326;28;20136;-71
2022/06/15 02:00:19;;;;;;;17.15;11.48;;;;;;;-145.76;100.00;65039.31;4915953;28;20662;-71
2022/06/15 02:03:10;;;;;;;19.50;10.52;;;;;;;-145.76;100.00;65039.31;4917696;28;20073;-71
2022/06/15 02:05:50;;;;;;;19.15;10.95;;;;;;;-145.76;100.00;65039.31;4899707;28;20637;-71
2022/06/15 02:08:39;;;;;;;22.63;10.65;;;;;;;-145.76;100.00;65039.31;4901823;28;20170;-71
2022/06/15 02:11:23;;;;;;;17.63;10.32;;;;;;;-145.76;100.00;65039.31;4922529;28;20257;-71
2022/06/15 02:13:57;;;;;;;15.93;10.70;;;;;;;-145.76;100.00;65039.31;4904949;28;20050;-71
2022/06/15 02:16:24;;;;;;;;;;;;;;;-145.76;100.00;65039.31;4934479;28;20163;-71
2022/06/15 02:18:50;;;;;;;20.60;10.15;;;;;;;-145.76;100.00;65039.31;4908151;28;20019;-71
2022/06/15 02:21:19;;;;;;;16.65;10.13;;;;;;;-145.76;100.00;65039.31;4918805;28;20038;-71
2022/06/15 02:23:46;;;;;;;15.20;10.07;;;;;;;-145.76;100.00;65039.31;4904897;28;20042;-71
2022/06/15 02:26:14;;;;;;;18.77;10.40;;;;;;;-145.76;100.00;65039.31;4916381;28;20600;-71
2022/06/15 02:28:45;;;;;;;19.80;10.02;;;;;;;-145.76;100.00;65039.31;4906817;28;20038;-72
2022/06/15 02:31:11;;;;;;;14.23;10.70;;;;;;;-145.76;100.00;65039.31;4922337;28;20038;-71
2022/06/15 02:33:39;;;;;;;15.25;10.80;;;;;;;-145.76;100.00;65039.31;4924200;28;21027;-71
2022/06/15 02:36:05;;;;;;;18.55;10.63;;;;;;;-145.76;100.00;65039.31;4903893;28;22199;-72
2022/06/15 02:38:31;;;;;;;19.25;11.70;;;;;;;-145.76;100.00;65039.31;4920432;28;21035;-72
2022/06/15 02:40:57;;;;;;;17.20;11.15;;;;;;;-145.76;100.00;65039.31;4906823;28;20046;-72
2022/06/15 02:43:26;;;;;;;18.00;10.40;;;;;;;-145.76;100.00;65039.31;4937738;28;20041;-71
2022/06/15 02:45:53;;;;;;;15.90;10.35;;;;;;;-145.76;100.00;65039.31;4905213;28;20132;-71
2022/06/15 02:48:20;;;;;;;18.15;11.65;;;;;;;-145.76;100.00;65039.31;4921666;28;20045;-72
2022/06/15 02:50:50;;;;;;;16.85;10.35;;;;;;;-145.76;100.00;65039.31;4918613;28;23903;-72
2022/06/15 02:53:20;;;;;;;14.68;10.30;;;;;;;-145.76;100.00;65039.31;4908474;28;20045;-71
2022/06/15 02:55:46;;;;;;;17.42;10.95;;;;;;;-145.76;100.00;65039.31;4920045;28;20053;-70
2022/06/15 02:58:22;;;;;;;16.73;11.25;;;;;;;-145.76;100.00;65039.31;4904876;28;20049;-71
2022/06/15 03:00:48;;;;;;;20.15;10.27;;;;;;;-145.76;100.00;65039.31;4920577;28;20074;-71
2022/06/15 03:03:13;;;;;;;17.08;10.60;;;;;;;-145.76;100.00;65039.31;4907203;28;20104;-72
2022/06/15 03:05:41;;;;;;;16.70;10.25;;;;;;;-145.76;100.00;65039.31;4921217;28;20217;-72
2022/06/15 03:08:06;;;;;;;15.30;10.65;;;;;;;-145.76;100.00;65039.31;4907264;28;20046;-72
2022/06/15 03:10:31;;;;;;;16.35;9.85;;;;;;;-145.76;100.00;65039.31;4921512;28;21268;-72
2022/06/15 03:12:57;;;;;;;23.35;9.82;;;;;;;-145.76;100.00;65039.31;4931602;28;20083;-72
2022/06/15 03:15:22;;;;;;;16.45;9.93;;;;;;;-145.76;100.00;65039.31;4911305;28;20038;-72
2022/06/15 03:17:51;;;;;;;17.55;11.38;;;;;;;-145.76;100.00;65039.31;4919832;28;20046;-72
2022/06/15 03:20:17;;;;;;;17.45;11.07;;;;;;;-145.76;100.00;65039.31;4903318;28;20540;-72
2022/06/15 03:22:42;;;;;;;18.52;11.10;;;;;;;-145.76;100.00;65039.31;4918727;28;20705;-72
2022/06/15 03:25:08;;;;;;;17.88;10.77;;;;;;;-145.76;100.00;65039.31;4905603;28;20164;-72
2022/06/15 03:27:33;;;;;;;22.45;11.13;;;;;;;-145.76;100.00;65039.31;4923736;28;20136;-72
2022/06/15 03:30:00;;;;;;;18.55;12.07;;;;;;;-145.76;100.00;65039.31;4907972;28;21155;-72
2022/06/15 03:32:25;;;;;;;20.20;10.90;;;;;;;-145.76;100.00;65039.31;4921339;28;20049;-72
2022/06/15 03:34:51;;;;;;;19.25;11.40;;;;;;;-145.76;100.00;65039.31;4919788;28;20081;-72
2022/06/15 03:37:16;;;;;;;23.50;12.80;;;;;;;-145.76;100.00;65039.31;4906270;28;23456;-72
2022/06/15 03:39:42;;;;;;;21.52;12.90;;;;;;;-145.76;100.00;65039.31;4919382;28;24768;-72
2022/06/15 03:42:14;;;;;;;23.65;13.52;;;;;;;-145.76;100.00;65039.31;4907088;28;20050;-72
2022/06/15 03:44:40;;;;;;;22.88;12.05;;;;;;;-145.76;100.00;65039.31;4918586;28;21572;-73
2022/06/15 03:47:24;;;;;;;21.40;12.82;;;;;;;-145.76;100.00;65039.31;4903606;28;20672;-72
2022/06/15 03:49:51;;;;;;;20.92;13.35;;;;;;;-145.76;100.00;65039.31;4922241;28;20490;-72
2022/06/15 03:52:18;;;;;;;27.70;12.93;;;;;;;-145.76;100.00;65039.31;4904117;28;24871;-72
2022/06/15 03:54:44;;;;;;;25.20;14.15;;;;;;;-145.76;100.00;65039.31;4921743;28;20060;-72
2022/06/15 03:57:11;;;;;;;20.65;14.57;;;;;;;-145.76;100.00;65039.31;4921814;28;20033;-72
2022/06/15 03:59:37;;;;;;;24.33;13.65;;;;;;;-145.76;100.00;65039.31;4903301;28;20128;-71
2022/06/15 04:02:03;;;;;;;22.95;14.23;;;;;;;-145.76;100.00;65039.31;4918234;28;20427;-71
2022/06/15 04:04:28;;;;;;;24.30;14.68;;;;;;;-145.76;100.00;65039.31;4907332;28;20723;-71
2022/06/15 04:06:54;;;;;;;23.17;14.05;;;;;;;-145.76;100.00;65039.31;4921848;28;20498;-72
2022/06/15 04:09:21;;;;;;;28.52;15.20;;;;;;;-145.76;100.00;65039.31;4906229;28;20984;-71
2022/06/15 04:12:02;;;;;;;34.20;17.33;;;;;;;-145.76;100.00;65039.31;4931009;28;20037;-72
2022/06/15 04:14:32;;;;;;;27.55;14.98;;;;;;;-145.76;100.00;65039.31;4902373;28;20030;-71
2022/06/15 04:16:58;;;;;;;26.60;16.25;;;;;;;-145.76;100.00;65039.31;4918453;28;20041;-71
2022/06/15 04:19:27;;;;;;;29.42;16.90;;;;;;;-145.76;100.00;65039.31;4919689;28;20042;-71
2022/06/15 04:21:53;;;;;;;29.45;16.45;;;;;;;-145.76;100.00;65039.31;4918495;28;20053;-72
2022/06/15 04:24:19;;;;;;;26.23;16.83;;;;;;;-145.76;100.00;65039.31;4918765;28;20034;-71
2022/06/15 04:26:46;;;;;;;23.48;14.50;;;;;;;-145.76;100.00;65039.31;4905591;28;20038;-71
2022/06/15 04:29:12;;;;;;;30.92;15.52;;;;;;;-145.76;100.00;65039.31;4915038;28;20062;-71
2022/06/15 04:31:38;;;;;;;26.55;14.30;;;;;;;-145.76;100.00;65039.31;4903098;28;20098;-71
2022/06/15 04:34:05;;;;;;;30.05;15.07;;;;;;;-145.76;100.00;65039.31;4916212;28;20080;-71
2022/06/15 04:36:30;;;;;;;28.83;13.05;;;;;;;-145.76;100.00;65039.31;4902507;28;20057;-71
2022/06/15 04:38:56;;;;;;;23.13;12.98;;;;;;;-145.76;100.00;65039.31;4918723;28;20034;-72
2022/06/15 04:41:22;;;;;;;24.30;13.27;;;;;;;-145.76;100.00;65039.31;4914520;28;20042;-72
2022/06/15 04:43:47;;;;;;;21.90;11.95;;;;;;;-145.76;100.00;65039.31;4901578;28;20045;-72
2022/06/15 04:46:12;;;;;;;22.67;11.05;;;;;;;-145.76;100.00;65039.31;4920504;28;20038;-72
2022/06/15 04:48:38;;;;;;;19.58;11.63;;;;;;;-145.76;100.00;65039.31;4903707;28;20120;-72
2022/06/15 04:51:16;;;;;;;19.20;9.85;;;;;;;-145.76;100.00;65039.31;4917427;28;20030;-72
2022/06/15 04:53:41;;;;;;;15.77;8.95;;;;;;;-145.76;100.00;65039.31;4904100;28;20076;-71
2022/06/15 04:56:07;;;;;;;15.55;9.75;;;;;;;-145.76;100.00;65039.31;4920215;28;22993;-72
2022/06/15 04:58:33;;;;;;;17.73;9.48;;;;;;;-145.76;100.00;65039.31;4905045;28;20076;-71
2022/06/15 05:00:58;;;;;;;19.48;9.52;;;;;;;-145.76;100.00;65039.31;4920635;28;20042;-71
2022/06/15 05:03:23;;;;;;;13.57;9.57;;;;;;;-145.76;100.00;65039.31;4920041;28;20042;-72
2022/06/15 05:05:49;;;;;;;16.25;8.43;;;;;;;-145.76;100.00;65039.31;4916702;28;20041;-71
2022/06/15 05:08:14;;;;;;;15.70;8.63;;;;;;;-145.76;100.00;65039.31;4899604;28;20038;-72
2022/06/15 05:10:40;;;;;;;15.77;8.15;;;;;;;-145.76;100.00;65039.31;4917371;28;25871;-72
2022/06/15 05:13:05;;;;;;;15.00;7.72;;;;;;;-145.76;100.00;65039.31;4918799;28;20037;-72
2022/06/15 05:15:31;;;;;;;12.40;7.35;;;;;;;-145.76;100.00;65039.31;4902766;28;20053;-72
2022/06/15 05:18:01;;;;;;;11.85;6.07;;;;;;;-145.76;100.00;65039.31;4901222;28;20049;-72
2022/06/15 05:20:26;;;;;;;15.38;6.28;;;;;;;-145.76;100.00;65039.31;4920738;28;20408;-72
2022/06/15 05:22:53;;;;;;;13.52;6.57;;;;;;;-145.76;100.00;65039.31;4917897;28;20492;-72
2022/06/15 05:25:20;;;;;;;13.13;6.22;;;;;;;-145.76;100.00;65039.31;4919805;28;22564;-72
2022/06/15 05:27:45;;;;;;;14.25;6.00;;;;;;;-145.76;100.00;65039.31;4904497;28;20119;-72
2022/06/15 05:30:11;;;;;;;14.82;6.90;;;;;;;-145.76;100.00;65039.31;4915670;28;20049;-71
2022/06/15 05:32:37;;;;;;;10.48;6.47;;;;;;;-145.76;100.00;65039.31;4907439;28;20059;-71
2022/06/15 05:35:02;;;;;;;12.45;6.65;;;;;;;-145.76;100.00;65039.31;4901609;28;20439;-71
2022/06/15 05:37:30;;;;;;;13.35;7.07;;;;;;;-145.76;100.00;65039.31;4888136;28;20033;-71
2022/06/15 05:39:56;;;;;;;11.80;6.97;;;;;;;-145.76;100.00;65039.31;4918653;28;20050;-72
2022/06/15 05:42:21;;;;;;;14.75;7.28;;;;;;;-145.76;100.00;65039.31;4918267;28;20033;-72
2022/06/15 05:44:49;;;;;;;15.57;7.28;;;;;;;-145.76;100.00;65039.31;4904096;28;20045;-72
2022/06/15 05:47:15;;;;;;;15.18;6.70;;;;;;;-145.76;100.00;65039.31;4916750;28;20045;-72
2022/06/15 05:49:41;;;;;;;11.48;6.65;;;;;;;-145.76;100.00;65039.31;4903304;28;20136;-71
2022/06/15 05:52:06;;;;;;;16.05;6.55;;;;;;;-145.76;100.00;65039.31;4921673;28;20477;-71
2022/06/15 05:54:32;;;;;;;17.10;6.55;;;;;;;-145.76;100.00;65039.31;4920964;28;20973;-72
2022/06/15 05:56:57;;;;;;;12.00;6.75;;;;;;;-145.76;100.00;65039.31;4920219;28;20716;-71
2022/06/15 05:59:23;;;;;;;15.20;6.32;;;;;;;-145.76;100.00;65039.31;4914587;28;20034;-72
2022/06/15 06:01:48;;;;;;;11.45;6.65;;;;;;;-145.76;100.00;65039.31;4908066;28;20068;-71
2022/06/15 06:04:16;;;;;;;12.95;6.15;;;;;;;-145.76;100.00;65039.31;4917646;28;20149;-71
2022/06/15 06:06:41;;;;;;;8.90;5.47;;;;;;;-145.76;100.00;65039.31;4883507;28;20501;-71
2022/06/15 06:09:07;;;;;;;9.32;5.72;;;;;;;-145.76;100.00;65039.31;4921410;28;21018;-71
2022/06/15 06:11:33;;;;;;;9.85;5.60;;;;;;;-145.76;100.00;65039.31;4902449;28;20042;-71
2022/06/15 06:13:58;;;;;;;11.25;5.38;;;;;;;-145.76;100.00;65039.31;4903000;28;20029;-72
2022/06/15 06:16:24;;;;;;;11.60;5.60;;;;;;;-145.76;100.00;65039.31;4905711;28;20578;-69
2022/06/15 06:18:51;;;;;;;15.65;5.47;;;;;;;-145.76;100.00;65039.31;4919628;28;20486;-69
2022/06/15 06:21:17;;;;;;;12.50;4.95;;;;;;;-145.76;100.00;65039.31;4918794;28;20190;-69
2022/06/15 06:23:43;;;;;;;10.30;4.90;;;;;;;-145.76;100.00;65039.31;4896640;28;20046;-72
2022/06/15 06:26:18;;;;;;;11.57;4.95;;;;;;;-145.76;100.00;65039.31;4916488;28;20069;-70
2022/06/15 06:28:43;;;;;;;12.75;4.60;;;;;;;-145.76;100.00;65039.31;4901485;28;20056;-70
2022/06/15 06:31:10;;;;;;;11.02;4.43;;;;;;;-145.76;100.00;65039.31;4921800;28;20038;-70
2022/06/15 06:33:37;;;;;;;10.07;4.10;;;;;;;-145.76;100.00;65039.31;4903268;28;20027;-71
2022/06/15 06:36:06;;;;;;;7.60;3.17;;;;;;;-145.76;100.00;65039.31;4918314;28;20236;-71
2022/06/15 06:38:33;;;;;;;6.63;2.97;;;;;;;-145.76;100.00;65039.31;4887732;28;20045;-71
2022/06/15 06:41:00;;;;;;;6.18;3.30;;;;;;;-145.76;100.00;65039.31;4917897;28;20659;-69
2022/06/15 06:43:28;;;;;;;17.77;3.40;;;;;;;-145.76;100.00;65039.31;4919318;28;20125;-70
2022/06/15 06:45:54;;;;;;;7.95;3.47;;;;;;;-145.76;100.00;65039.31;4915738;28;20050;-71
2022/06/15 06:48:20;;;;;;;8.05;3.00;;;;;;;-145.76;100.00;65039.31;4934566;28;20116;-71
2022/06/15 06:50:45;;;;;;;7.05;3.15;;;;;;;-145.76;100.00;65039.31;4907516;28;20376;-71
2022/06/15 06:53:13;;;;;;;9.90;3.33;;;;;;;-145.76;100.00;65039.31;4918762;28;20030;-71
2022/06/15 06:55:39;;;;;;;7.65;2.70;;;;;;;-145.76;100.00;65039.31;4918870;28;20088;-71
2022/06/15 06:58:04;;;;;;;9.02;2.92;;;;;;;-145.76;100.00;65039.31;4925643;28;20041;-71
2022/06/15 07:00:32;;;;;;;10.45;2.38;;;;;;;-145.76;100.00;65039.31;4917282;28;20049;-72
2022/06/15 07:02:59;;;;;;;6.88;2.30;;;;;;;-145.76;100.00;65039.31;4925501;28;20050;-71
2022/06/15 07:05:24;;;;;;;7.05;2.05;;;;;;;-145.76;100.00;65039.31;4924416;28;20030;-71
2022/06/15 07:07:49;;;;;;;7.13;2.80;;;;;;;-145.76;100.00;65039.31;4903103;28;20068;-70
2022/06/15 07:10:15;;;;;;;8.07;2.50;;;;;;;-145.76;100.00;65039.31;4931673;28;20034;-70
2022/06/15 07:12:42;;;;;;;7.75;2.50;;;;;;;-145.76;100.00;65039.31;4908545;28;20064;-71
2022/06/15 07:15:10;;;;;;;5.95;2.40;;;;;;;-145.76;100.00;65039.31;4920982;28;20290;-71
2022/06/15 07:17:35;;;;;;;6.88;1.58;;;;;;;-145.76;100.00;65039.31;4902162;28;20509;-72
2022/06/15 07:20:01;;;;;;;8.55;2.17;;;;;;;-145.76;100.00;65039.31;4921626;28;20058;-71
2022/06/15 07:22:26;;;;;;;8.40;2.65;;;;;;;-145.76;100.00;65039.31;4920177;28;20072;-72
2022/06/15 07:24:52;;;;;;;7.25;2.17;;;;;;;-145.76;100.00;65039.31;4905137;28;24769;-72
2022/06/15 07:27:17;;;;;;;6.95;2.75;;;;;;;-145.76;100.00;65039.31;4918771;28;20169;-72
2022/06/15 07:29:46;;;;;;;5.97;2.33;;;;;;;-145.76;100.00;65039.31;4899421;28;20188;-72
2022/06/15 07:32:13;;;;;;;6.10;2.55;;;;;;;-145.76;100.00;65039.31;4933881;28;20073;-72
2022/06/15 07:34:39;;;;;;;7.97;2.95;;;;;;;-145.76;100.00;65039.31;4890233;28;20053;-72
2022/06/15 07:37:04;;;;;;;7.25;2.67;;;;;;;-145.76;100.00;65039.31;4922085;28;20077;-73
2022/06/15 07:39:30;;;;;;;12.07;2.28;;;;;;;-145.76;100.00;65039.31;4914482;28;20046;-72
2022/06/15 07:41:56;;;;;;;7.78;2.55;;;;;;;-145.76;100.00;65039.31;4920094;28;20041;-72
2022/06/15 07:44:23;;;;;;;12.68;2.90;;;;;;;-145.76;100.00;65039.31;4920243;28;20058;-70
2022/06/15 07:49:53;;;;;;;9.27;2.60;;;;;;;-145.76;100.00;65039.31;4922578;28;20116;-71
2022/06/15 07:52:18;;;;;;;4.18;1.80;;;;;;;-145.76;100.00;65039.31;4923208;28;20179;-72
2022/06/15 07:54:43;;;;;;;4.78;1.80;;;;;;;-145.76;100.00;65039.31;4905382;28;20750;-71
2022/06/15 07:57:09;;;;;;;7.57;2.85;;;;;;;-145.76;100.00;65039.31;4921063;28;20037;-72
2022/06/15 07:59:34;;;;;;;8.25;2.42;;;;;;;-145.76;100.00;65039.31;4905114;28;20169;-72
2022/06/15 08:02:00;;;;;;;7.78;2.78;;;;;;;-145.76;100.00;65039.31;4919781;28;20044;-72
2022/06/15 08:04:25;;;;;;;11.90;2.42;;;;;;;-145.76;100.00;65039.31;4908549;28;20216;-72
2022/06/15 08:06:51;;;;;;;6.53;2.20;;;;;;;-145.76;100.00;65039.31;4920199;28;20137;-72
2022/06/15 08:09:17;;;;;;;5.38;1.95;;;;;;;-145.76;100.00;65039.31;4921375;28;20038;-71
2022/06/15 08:12:11;;;;;;;7.10;1.70;;;;;;;-145.76;100.00;65039.31;4904476;28;20129;-71
2022/06/15 08:14:31;;;;;;;3.90;1.50;;;;;;;-145.76;100.00;65039.31;4917250;28;20033;-72
2022/06/15 08:16:58;;;;;;;5.47;1.80;;;;;;;-145.76;100.00;65039.31;4904889;28;20670;-71
2022/06/15 08:19:23;;;;;;;5.82;1.67;;;;;;;-145.76;100.00;65039.31;4918120;28;20140;-71
2022/06/15 08:21:49;;;;;;;7.53;2.70;;;;;;;-145.76;100.00;65039.31;4887819;28;20053;-71
2022/06/15 08:24:14;;;;;;;7.93;2.13;;;;;;;-145.76;100.00;65039.31;4934484;28;20034;-72
2022/06/15 08:26:41;;;;;;;6.60;2.38;;;;;;;-145.76;100.00;65039.31;4898092;28;20666;-72
2022/06/15 08:29:12;;;;;;;8.15;2.70;;;;;;;-145.76;100.00;65039.31;4922494;28;24528;-70
2022/06/15 08:31:37;;;;;;;6.60;2.05;;;;;;;-145.76;100.00;65039.31;4915440;28;20372;-70
2022/06/15 08:34:03;;;;;;;7.55;2.03;;;;;;;-145.76;100.00;65039.31;4905266;28;20049;-69
2022/06/15 08:36:30;;;;;;;6.85;1.77;;;;;;;-145.76;100.00;65039.31;4917084;28;20172;-70
2022/06/15 08:38:56;;;;;;;7.53;2.15;;;;;;;-145.76;100.00;65039.31;4904888;28;20133;-72
2022/06/15 08:41:32;;;;;;;7.88;1.98;;;;;;;-145.76;100.00;65039.31;4920058;28;20050;-70
2022/06/15 08:44:24;;;;;;;6.03;1.90;;;;;;;-145.76;100.00;65039.31;4905482;28;20051;-71
2022/06/15 08:47:06;;;;;;;6.25;2.10;;;;;;;-145.76;100.00;65039.31;4920143;28;20037;-70
2022/06/15 08:50:12;;;;;;;5.30;2.07;;;;;;;-145.76;100.00;65039.31;4904073;28;20046;-71
2022/06/15 08:53:03;;;;;;;6.72;2.42;;;;;;;-145.76;100.00;65039.31;4921463;28;20042;-70
2022/06/15 08:55:55;;;;;;;9.88;2.70;;;;;;;-145.76;100.00;65039.31;4903436;28;20140;-71
2022/06/15 08:58:33;;;;;;;5.85;2.58;;;;;;;-145.76;100.00;65039.31;4916377;28;20061;-71
2022/06/15 09:01:06;;;;;;;6.93;2.08;;;;;;;-145.76;100.00;65039.31;4916091;28;20137;-71
2022/06/15 09:03:54;;;;;;;8.40;2.55;;;;;;;-145.76;100.00;65039.31;4918319;28;20061;-71
2022/06/15 09:06:27;;;;;;;6.82;2.78;;;;;;;-145.76;100.00;65039.31;4899598;28;20070;-70
2022/06/15 09:09:02;;;;;;;6.57;2.65;;;;;;;-145.76;100.00;65039.31;4915734;28;20030;-70
2022/06/15 09:11:34;;;;;;;8.63;3.20;;;;;;;-145.76;100.00;65039.31;4901213;28;20121;-71
2022/06/15 09:14:35;;;;;;;7.55;2.67;;;;;;;-145.76;100.00;65039.31;4919578;28;20185;-69
2022/06/15 09:17:22;;;;;;;6.40;2.63;;;;;;;-145.76;100.00;65039.31;4903315;28;20904;-70
2022/06/15 09:20:06;;;;;;;5.32;2.30;;;;;;;-145.76;100.00;65039.31;4920396;28;20046;-69
2022/06/15 09:22:36;;;;;;;7.82;2.17;;;;;;;-145.76;100.00;65039.31;4902420;28;20047;-69
2022/06/15 09:25:32;;;;;;;8.02;2.85;;;;;;;-145.76;100.00;65039.31;4919024;28;20065;-72
2022/06/15 09:28:04;;;;;;;6.75;2.97;;;;;;;-145.76;100.00;65039.31;4904737;28;20225;-72
2022/06/15 09:30:32;;;;;;;7.45;2.53;;;;;;;-145.76;100.00;65039.31;4916245;28;20160;-72
2022/06/15 09:33:02;;;;;;;7.03;2.70;;;;;;;-145.76;100.00;65039.31;4930810;28;20034;-72
2022/06/15 09:35:38;;;;;;;8.77;2.72;;;;;;;-145.76;100.00;65039.31;4907992;28;20123;-72
2022/06/15 09:38:10;;;;;;;7.97;2.95;;;;;;;-145.76;100.00;65039.31;4919338;28;20045;-72
2022/06/15 09:40:55;;;;;;;8.82;2.53;;;;;;;-145.76;100.00;65039.31;4905859;28;20069;-72
2022/06/15 09:43:23;;;;;;;6.97;2.47;;;;;;;-145.76;100.00;65039.31;4933015;28;20034;-72
2022/06/15 09:45:51;;;;;;;6.18;2.70;;;;;;;-145.76;100.00;65039.31;4899864;28;20063;-72
2022/06/15 09:48:39;;;;;;;8.13;2.42;;;;;;;-145.76;100.00;65039.31;4920491;28;20042;-72
2022/06/15 09:51:36;;;;;;;8.48;3.13;;;;;;;-145.76;100.00;65039.31;4919351;28;20447;-72
2022/06/15 09:54:27;;;;;;;7.50;2.40;;;;;;;-145.76;100.00;65039.31;4915470;28;20133;-72
2022/06/15 09:56:52;;;;;;;8.90;2.50;;;;;;;-145.76;100.00;65039.31;4883934;28;20041;-72
2022/06/15 09:59:20;;;;;;;8.40;2.20;;;;;;;-145.76;100.00;65039.31;4920691;28;20033;-72
2022/06/15 10:01:47;;;;;;;6.55;2.22;;;;;;;-145.76;100.00;65039.31;4899645;28;20094;-72
2022/06/15 10:04:22;;;;;;;10.68;2.42;;;;;;;-145.76;100.00;65039.31;4931835;28;20053;-72
2022/06/15 10:06:51;;;;;;;8.05;2.30;;;;;;;-145.76;100.00;65039.31;4918554;28;20046;-71
2022/06/15 10:09:20;;;;;;;5.40;1.77;;;;;;;-145.76;100.00;65039.31;4901919;28;20034;-72
2022/06/15 10:11:52;;;;;;;5.05;2.20;;;;;;;-145.76;100.00;65039.31;4917981;28;20037;-72
2022/06/15 10:14:20;;;;;;;8.05;1.98;;;;;;;-145.76;100.00;65039.31;4907221;28;20076;-73
2022/06/15 10:16:54;;;;;;;6.78;2.20;;;;;;;-145.76;100.00;65039.31;4917769;28;20089;-73
2022/06/15 10:19:20;;;;;;;5.38;2.22;;;;;;;-145.76;100.00;65039.31;4902443;28;20164;-72
2022/06/15 10:21:54;;;;;;;7.78;2.30;;;;;;;-145.76;100.00;65039.31;4917832;28;20136;-72
2022/06/15 10:24:24;;;;;;;11.30;3.38;;;;;;;-145.76;100.00;65039.31;4897595;28;20038;-73
2022/06/15 10:27:10;;;;;;;8.20;2.22;;;;;;;-145.76;100.00;65039.31;4912216;28;20512;-72
2022/06/15 10:29:36;;;;;;;7.30;2.55;;;;;;;-145.76;100.00;65039.31;4904026;28;20050;-73
2022/06/15 10:32:08;;;;;;;7.22;1.95;;;;;;;-145.76;100.00;65039.31;4915819;28;20132;-72
2022/06/15 10:34:55;;;;;;;6.93;2.33;;;;;;;-145.76;100.00;65039.31;4906322;28;20108;-72
2022/06/15 10:37:21;;;;;;;11.65;2.80;;;;;;;-145.76;100.00;65039.31;4918673;28;20045;-72
2022/06/15 10:39:49;;;;;;;8.35;2.10;;;;;;;-145.76;100.00;65039.31;4916240;28;20033;-74
2022/06/15 10:42:20;;;;;;;7.82;1.88;;;;;;;-145.76;100.00;65039.31;4909251;28;20046;-72
2022/06/15 10:44:57;;;;;;;9.00;2.17;;;;;;;-145.76;100.00;65039.31;4921128;28;20640;-73
2022/06/15 10:47:43;;;;;;;6.25;2.50;;;;;;;-145.76;100.00;65039.31;4907048;28;20044;-73
2022/06/15 10:50:17;;;;;;;6.88;1.90;;;;;;;-145.76;100.00;65039.31;4900575;28;20045;-72
2022/06/15 10:52:46;;;;;;;8.70;2.10;;;;;;;-145.76;100.00;65039.31;4906934;28;20042;-72
2022/06/15 11:04:05;;;;;;;6.45;2.00;;;;;;;-145.76;100.00;65039.31;4903674;28;20045;-72
2022/06/15 11:06:49;;;;;;;11.75;2.90;;;;;;;-145.76;100.00;65039.31;4937216;28;20139;-73
2022/06/15 11:09:17;;;;;;;9.63;1.85;;;;;;;-145.76;100.00;65039.31;4907014;28;20042;-73
2022/06/15 11:11:43;;;;;;;8.52;2.90;;;;;;;-145.76;100.00;65039.31;4922791;28;20042;-73
2022/06/15 11:14:19;;;;;;;6.90;2.03;;;;;;;-145.76;100.00;65039.31;4910137;28;20072;-73
2022/06/15 11:19:29;;;;;;;4.78;2.03;;;;;;;-145.76;100.00;65039.31;4905043;28;20038;-72
2022/06/15 11:22:15;;;;;;;6.53;2.00;;;;;;;-145.76;100.00;65039.31;4920947;28;20430;-73
2022/06/15 11:25:01;;;;;;;6.10;2.20;;;;;;;-145.76;100.00;65039.31;4902248;28;20061;-73
2022/06/15 11:27:37;;;;;;;6.40;2.20;;;;;;;-145.76;100.00;65039.31;4919331;28;20034;-72
2022/06/15 11:30:29;;;;;;;7.88;2.20;;;;;;;-145.76;100.00;65039.31;4904218;28;20057;-72